Terminal Aerodrome Forecast
Issued by NWS Sterling, VA

Home | Current Version | Previous Version | Text Only | Print | Product List | Glossary On
Versions: 1 2 3 4 5 6 7 8 9 10 11 12 13 14 15 16 17 18 19 20 21 22 23 24
000
FTUS41 KLWX 260900 AAA
TAFIAD
TAF AMD
KIAD 260915Z 2609/2712 02008KT 3SM -RA BKN050 OVC150
     FM261400 01009KT 2SM -RASN OVC008
     FM261700 35011KT 1SM -SN SCT003 OVC008
     FM262200 33011KT P6SM OVC008
     FM270100 32007KT P6SM SCT008 BKN035
     FM270500 VRB03KT P6SM OVC045=

USA.gov is the U.S. government's official web portal to all federal, state and local government web resources and services.